Aviation Digital Data Service (ADDS)

Output produced by TAFs form (0210 UTC 24 November 2017)
found at http://www.aviationweather.gov/adds/tafs/
 
KPOU 232321Z 2400/2424 00000KT P6SM FEW250